createdAt,value
2019-06-20T00:00:46.976Z,99273.97
2019-06-20T00:03:15.917Z,99279.98
2019-06-20T00:05:45.006Z,99283.23
2019-06-20T00:08:13.839Z,99275.77
2019-06-20T00:10:43.064Z,99273.49
2019-06-20T00:13:11.900Z,99272.27
2019-06-20T00:15:40.740Z,99267.41
2019-06-20T00:18:09.745Z,99265.00
2019-06-20T00:20:38.522Z,99270.86
2019-06-20T00:23:07.262Z,99273.52
2019-06-20T00:25:35.980Z,99270.55
2019-06-20T00:28:04.957Z,99265.95
2019-06-20T00:30:33.686Z,99271.02
2019-06-20T00:33:02.438Z,99264.94
2019-06-20T00:35:31.424Z,99261.73
2019-06-20T00:38:00.209Z,99250.91
2019-06-20T00:40:28.965Z,99251.22
2019-06-20T00:42:57.789Z,99256.20
2019-06-20T00:45:26.516Z,99251.92
2019-06-20T00:47:55.239Z,99248.03
2019-06-20T00:50:24.042Z,99251.42
2019-06-20T00:52:52.766Z,99254.23
2019-06-20T00:55:21.503Z,99249.02
2019-06-20T00:57:50.365Z,99244.61
2019-06-20T01:00:19.203Z,99254.45
2019-06-20T01:02:47.929Z,99249.70
2019-06-20T01:05:16.911Z,99252.72
2019-06-20T01:07:45.629Z,99255.95
2019-06-20T01:10:14.665Z,99250.25
2019-06-20T01:12:43.438Z,99251.73
2019-06-20T01:15:12.265Z,99257.68
2019-06-20T01:17:40.990Z,99256.72
2019-06-20T01:20:11.699Z,99253.61
2019-06-20T01:22:40.530Z,99254.53
2019-06-20T01:25:09.657Z,99261.09
2019-06-20T01:27:38.720Z,99265.39
2019-06-20T01:30:09.085Z,99262.20
2019-06-20T01:32:37.917Z,99266.50
2019-06-20T01:35:08.570Z,99266.07
2019-06-20T01:37:37.305Z,99265.66
2019-06-20T01:40:07.045Z,99268.68
2019-06-20T01:42:35.844Z,99273.36
2019-06-20T01:45:06.687Z,99270.81
2019-06-20T01:47:35.611Z,99271.88
2019-06-20T01:50:06.116Z,99272.72
2019-06-20T01:52:34.853Z,99265.66
2019-06-20T01:55:03.793Z,99270.48
2019-06-20T01:57:32.661Z,99269.64
2019-06-20T02:00:01.485Z,99278.09
2019-06-20T02:02:30.336Z,99270.22
2019-06-20T02:04:59.144Z,99266.22
2019-06-20T02:07:28.366Z,99273.47
2019-06-20T02:09:57.182Z,99270.67
2019-06-20T02:12:25.960Z,99275.30
2019-06-20T02:14:54.693Z,99275.94
2019-06-20T02:17:23.433Z,99271.75
2019-06-20T02:19:52.244Z,99271.61
2019-06-20T02:22:20.972Z,99265.71
2019-06-20T02:24:49.708Z,99267.17
2019-06-20T02:27:18.568Z,99269.58
2019-06-20T02:29:47.308Z,99274.05
2019-06-20T02:32:16.079Z,99273.42
2019-06-20T02:34:44.958Z,99278.99
2019-06-20T02:37:13.693Z,99277.40
2019-06-20T02:39:42.427Z,99278.22
2019-06-20T02:42:14.031Z,99278.08
2019-06-20T02:44:42.776Z,99284.23
2019-06-20T02:47:11.502Z,99281.48
2019-06-20T02:49:40.389Z,99278.73
2019-06-20T02:52:09.221Z,99282.70
2019-06-20T02:54:37.960Z,99284.39
2019-06-20T02:57:06.842Z,99283.31
2019-06-20T02:59:35.585Z,99281.09
2019-06-20T03:02:04.319Z,99283.23
2019-06-20T03:04:33.192Z,99288.66
2019-06-20T03:07:01.924Z,99289.18
2019-06-20T03:09:30.662Z,99285.76
2019-06-20T03:11:59.472Z,99286.58
2019-06-20T03:14:28.198Z,99284.13
2019-06-20T03:16:56.930Z,99279.37
2019-06-20T03:19:25.821Z,99287.44
2019-06-20T03:21:54.539Z,99283.54
2019-06-20T03:24:23.266Z,99288.25
2019-06-20T03:26:52.032Z,99281.89
2019-06-20T03:29:20.774Z,99283.73
2019-06-20T03:31:50.407Z,99281.30
2019-06-20T03:34:19.422Z,99292.34
2019-06-20T03:36:48.149Z,99281.70
2019-06-20T03:39:16.868Z,99283.44
2019-06-20T03:41:45.645Z,99277.17
2019-06-20T03:44:14.368Z,99278.50
2019-06-20T03:46:43.109Z,99277.44
2019-06-20T03:49:11.924Z,99277.29
2019-06-20T03:51:40.683Z,99275.30
2019-06-20T03:54:09.410Z,99280.16
2019-06-20T03:56:38.425Z,99277.26
2019-06-20T03:59:07.155Z,99279.31
2019-06-20T04:01:35.880Z,99280.73
2019-06-20T04:04:04.775Z,99282.85
2019-06-20T04:06:33.499Z,99289.98
2019-06-20T04:09:02.230Z,99285.23
2019-06-20T04:11:39.975Z,99289.42
2019-06-20T04:14:08.707Z,99292.55
2019-06-20T04:16:37.425Z,99301.98
2019-06-20T04:19:06.423Z,99305.81
2019-06-20T04:21:38.277Z,99308.65
2019-06-20T04:24:07.003Z,99316.00
2019-06-20T04:26:35.811Z,99312.30
2019-06-20T04:29:04.537Z,99321.95
2019-06-20T04:31:33.267Z,99320.66
2019-06-20T04:34:03.660Z,99328.19
2019-06-20T04:36:32.500Z,99329.19
2019-06-20T04:39:01.382Z,99329.63
2019-06-20T04:41:30.381Z,99324.06
2019-06-20T04:43:59.110Z,99324.95
2019-06-20T04:46:29.403Z,99323.28
2019-06-20T04:48:58.248Z,99330.60
2019-06-20T04:51:26.964Z,99327.41
2019-06-20T04:53:55.697Z,99326.39
2019-06-20T04:56:24.483Z,99326.44
2019-06-20T04:58:53.206Z,99322.58
2019-06-20T05:01:21.940Z,99321.63
2019-06-20T05:03:50.828Z,99325.73
2019-06-20T05:06:19.578Z,99321.06
2019-06-20T05:08:49.876Z,99324.86
2019-06-20T05:11:18.644Z,99319.89
2019-06-20T05:13:47.362Z,99313.94
2019-06-20T05:16:16.081Z,99317.11
2019-06-20T05:18:44.952Z,99316.09
2019-06-20T05:21:13.692Z,99318.16
2019-06-20T05:23:42.423Z,99320.43
2019-06-20T05:26:11.202Z,99323.39
2019-06-20T05:28:39.924Z,99321.10
2019-06-20T05:31:08.663Z,99321.16
2019-06-20T05:33:37.712Z,99320.91
2019-06-20T05:36:06.428Z,99321.06
2019-06-20T05:38:35.214Z,99326.05
2019-06-20T05:41:03.985Z,99332.75
2019-06-20T05:43:32.694Z,99335.28
2019-06-20T05:46:09.651Z,99335.30
2019-06-20T05:48:32.033Z,99334.55
2019-06-20T05:51:00.761Z,99331.29
2019-06-20T05:53:29.489Z,99329.28
2019-06-20T05:55:58.364Z,99329.77
2019-06-20T05:58:27.139Z,99333.10
2019-06-20T06:00:55.896Z,99329.95
2019-06-20T06:03:24.657Z,99323.61
2019-06-20T06:05:53.380Z,99323.22
2019-06-20T06:08:22.110Z,99318.98
2019-06-20T06:10:50.952Z,99320.19
2019-06-20T06:13:20.600Z,99318.01
2019-06-20T06:15:49.471Z,99326.46
2019-06-20T06:18:18.726Z,99318.80
2019-06-20T06:20:47.447Z,99316.88
2019-06-20T06:23:16.195Z,99318.77
2019-06-20T06:25:45.012Z,99316.69
2019-06-20T06:28:13.739Z,99311.86
2019-06-20T06:30:42.491Z,99320.48
2019-06-20T06:33:11.290Z,99315.68
2019-06-20T06:35:40.031Z,99315.16
2019-06-20T06:38:08.748Z,99312.91
2019-06-20T06:40:37.769Z,99313.78
2019-06-20T06:43:06.494Z,99315.67
2019-06-20T06:45:35.218Z,99310.77
2019-06-20T06:48:04.111Z,99322.06
2019-06-20T06:50:32.833Z,99317.86
2019-06-20T06:53:01.574Z,99321.84
2019-06-20T06:55:30.559Z,99316.63
2019-06-20T06:57:59.331Z,99320.98
2019-06-20T07:00:28.049Z,99320.09
2019-06-20T07:02:56.960Z,99321.91
2019-06-20T07:05:25.682Z,99318.78
2019-06-20T07:07:54.405Z,99322.66
2019-06-20T07:10:23.290Z,99315.27
2019-06-20T07:12:52.021Z,99321.61
2019-06-20T07:15:21.147Z,99317.41
2019-06-20T07:17:50.002Z,99314.39
2019-06-20T07:20:18.914Z,99318.00
2019-06-20T07:22:50.217Z,99320.88
2019-06-20T07:25:19.114Z,99317.70
2019-06-20T07:27:47.845Z,99316.83
2019-06-20T07:30:16.880Z,99320.40
2019-06-20T07:32:45.779Z,99312.84
2019-06-20T07:35:15.781Z,99316.50
2019-06-20T07:37:44.612Z,99312.02
2019-06-20T07:40:13.582Z,99311.08
2019-06-20T07:42:42.385Z,99317.67
2019-06-20T07:45:11.633Z,99312.55
2019-06-20T07:47:40.567Z,99314.70
2019-06-20T07:50:10.415Z,99311.56
2019-06-20T07:52:40.574Z,99312.91
2019-06-20T07:55:10.103Z,99307.09
2019-06-20T07:57:41.771Z,99306.77
2019-06-20T08:00:12.676Z,99306.77
2019-06-20T08:02:41.950Z,99308.31
2019-06-20T08:05:11.759Z,99306.53
2019-06-20T08:07:40.495Z,99306.41
2019-06-20T08:10:12.080Z,99308.70
2019-06-20T08:12:40.852Z,99306.70
2019-06-20T08:15:15.550Z,99309.55
2019-06-20T08:17:41.283Z,99311.66
2019-06-20T08:20:11.521Z,99313.97
2019-06-20T08:22:41.007Z,99312.70
2019-06-20T08:25:10.527Z,99307.41
2019-06-20T08:27:57.136Z,99306.20
2019-06-20T08:30:27.120Z,99310.02
2019-06-20T08:32:57.790Z,99308.97
2019-06-20T08:35:29.308Z,99306.50
2019-06-20T08:38:03.508Z,99307.25
2019-06-20T08:40:36.673Z,99308.72
2019-06-20T08:43:06.484Z,99304.31
2019-06-20T08:45:35.666Z,99307.56
2019-06-20T08:48:04.771Z,99308.45
2019-06-20T08:50:34.365Z,99306.33
2019-06-20T08:53:06.034Z,99304.62
2019-06-20T08:55:35.155Z,99303.52
2019-06-20T08:58:05.612Z,99303.39
2019-06-20T09:00:36.921Z,99302.05
2019-06-20T09:03:07.077Z,99308.16
2019-06-20T09:05:36.070Z,99300.20
2019-06-20T09:08:06.640Z,99292.48
2019-06-20T09:10:37.836Z,99289.80
2019-06-20T09:13:07.195Z,99285.92
2019-06-20T09:15:36.399Z,99288.08
2019-06-20T09:18:06.012Z,99289.77
2019-06-20T09:20:34.793Z,99282.92
2019-06-20T09:23:05.807Z,99279.34
2019-06-20T09:25:38.847Z,99274.38
2019-06-20T09:28:06.328Z,99276.50
2019-06-20T09:30:36.143Z,99264.18
2019-06-20T09:33:05.172Z,99264.11
2019-06-20T09:35:34.067Z,99274.16
2019-06-20T09:38:03.532Z,99266.83
2019-06-20T09:40:32.506Z,99269.25
2019-06-20T09:43:02.776Z,99261.13
2019-06-20T09:45:32.585Z,99262.14
2019-06-20T09:48:02.699Z,99258.05
2019-06-20T09:50:31.893Z,99255.42
2019-06-20T09:53:00.683Z,99252.88
2019-06-20T09:55:29.399Z,99258.55
2019-06-20T09:57:58.362Z,99257.16
2019-06-20T10:00:29.465Z,99253.31
2019-06-20T10:02:58.221Z,99253.03
2019-06-20T10:05:27.122Z,99244.94
2019-06-20T10:07:56.695Z,99241.83
2019-06-20T10:10:34.060Z,99241.02
2019-06-20T10:13:02.799Z,99250.09
2019-06-20T10:15:33.530Z,99244.60
2019-06-20T10:18:02.517Z,99236.98
2019-06-20T10:20:31.441Z,99237.52
2019-06-20T10:23:00.869Z,99234.62
2019-06-20T10:25:29.720Z,99229.41
2019-06-20T10:27:58.447Z,99225.88
2019-06-20T10:30:28.673Z,99234.04
2019-06-20T10:32:57.848Z,99234.22
2019-06-20T10:35:27.031Z,99232.08
2019-06-20T10:37:57.226Z,99231.64
2019-06-20T10:40:26.410Z,99225.88
2019-06-20T10:42:55.135Z,99230.61
2019-06-20T10:45:25.573Z,99234.81
2019-06-20T10:47:54.874Z,99225.52
2019-06-20T10:50:24.807Z,99220.45
2019-06-20T10:52:54.367Z,99212.77
2019-06-20T10:55:23.875Z,99214.29
2019-06-20T10:57:52.807Z,99207.30
2019-06-20T11:00:30.718Z,99203.43
2019-06-20T11:02:54.226Z,99210.42
2019-06-20T11:05:23.566Z,99197.23
2019-06-20T11:07:52.267Z,99201.56
2019-06-20T11:10:22.231Z,99194.83
2019-06-20T11:12:55.606Z,99192.71
2019-06-20T11:15:22.299Z,99187.75
2019-06-20T11:17:51.155Z,99187.50
2019-06-20T11:20:23.071Z,99180.88
2019-06-20T11:22:51.803Z,99178.60
2019-06-20T11:25:20.741Z,99174.20
2019-06-20T11:27:49.460Z,99161.11
2019-06-20T11:30:24.113Z,99164.80
2019-06-20T11:32:53.083Z,99161.27
2019-06-20T11:35:21.792Z,99159.30
2019-06-20T11:37:50.508Z,99162.53
2019-06-20T11:40:19.619Z,99153.10
2019-06-20T11:42:48.335Z,99154.00
2019-06-20T11:45:17.171Z,99151.16
2019-06-20T11:47:47.115Z,99154.48
2019-06-20T11:50:17.332Z,99150.22
2019-06-20T11:52:46.119Z,99151.37
2019-06-20T11:55:16.563Z,99142.58
2019-06-20T11:57:45.334Z,99138.14
2019-06-20T12:00:15.378Z,99138.66
2019-06-20T12:02:45.734Z,99126.13
2019-06-20T12:05:15.048Z,99130.19
2019-06-20T12:07:45.504Z,99126.61
2019-06-20T12:10:15.945Z,99123.64
2019-06-20T12:12:44.836Z,99123.63
2019-06-20T12:15:14.165Z,99117.72
2019-06-20T12:17:43.763Z,99111.59
2019-06-20T12:20:14.400Z,99105.06
2019-06-20T12:22:43.608Z,99098.34
2019-06-20T12:25:14.893Z,99092.97
2019-06-20T12:27:45.249Z,99096.74
2019-06-20T12:30:15.719Z,99100.80
2019-06-20T12:32:44.791Z,99088.70
2019-06-20T12:35:14.202Z,99088.25
2019-06-20T12:37:43.067Z,99084.58
2019-06-20T12:40:13.680Z,99083.80
2019-06-20T12:42:43.215Z,99083.38
2019-06-20T12:45:15.255Z,99074.67
2019-06-20T12:47:45.893Z,99083.25
2019-06-20T12:50:16.380Z,99074.09
2019-06-20T12:52:45.712Z,99067.89
2019-06-20T12:55:15.289Z,99070.72
2019-06-20T12:57:44.273Z,99069.66
2019-06-20T13:00:14.607Z,99066.37
2019-06-20T13:02:43.850Z,99062.06
2019-06-20T13:05:14.702Z,99065.05
2019-06-20T13:07:44.254Z,99063.23
2019-06-20T13:10:14.893Z,99050.38
2019-06-20T13:12:44.304Z,99054.61
2019-06-20T13:15:13.234Z,99054.05
2019-06-20T13:17:43.650Z,99055.90
2019-06-20T13:20:13.262Z,99057.42
2019-06-20T13:22:42.858Z,99049.09
2019-06-20T13:25:12.135Z,99051.59
2019-06-20T13:27:41.094Z,99048.00
2019-06-20T13:30:11.685Z,99049.92
2019-06-20T13:32:42.072Z,99041.98
2019-06-20T13:35:12.579Z,99048.29
2019-06-20T13:37:42.051Z,99046.36
2019-06-20T13:40:12.698Z,99044.44
2019-06-20T13:42:42.629Z,99047.86
2019-06-20T13:45:20.933Z,99035.51
2019-06-20T13:47:49.974Z,99041.80
2019-06-20T13:50:19.583Z,99039.88
2019-06-20T13:52:49.615Z,99035.16
2019-06-20T13:55:18.917Z,99042.85
2019-06-20T13:57:49.232Z,99038.88
2019-06-20T14:00:20.554Z,99044.47
2019-06-20T14:02:51.163Z,99044.16
2019-06-20T14:05:20.944Z,99054.58
2019-06-20T14:07:53.531Z,99050.28
2019-06-20T14:10:20.961Z,99060.52
2019-06-20T14:12:49.695Z,99066.03
2019-06-20T14:15:18.841Z,99059.11
2019-06-20T14:17:49.434Z,99063.34
2019-06-20T14:20:19.111Z,99060.03
2019-06-20T14:22:49.382Z,99067.08
2019-06-20T14:25:18.750Z,99065.07
2019-06-20T14:27:49.014Z,99063.05
2019-06-20T14:30:19.222Z,99055.06
2019-06-20T14:32:49.379Z,99057.42
2019-06-20T14:35:19.649Z,99053.98
2019-06-20T14:37:49.508Z,99053.91
2019-06-20T14:40:18.974Z,99054.83
2019-06-20T14:42:48.013Z,99057.98
2019-06-20T14:45:17.834Z,99052.73
2019-06-20T14:47:55.343Z,99067.39
2019-06-20T14:50:24.164Z,99068.05
2019-06-20T14:52:54.122Z,99067.95
2019-06-20T14:55:23.212Z,99065.84
2019-06-20T14:57:52.614Z,99072.75
2019-06-20T15:00:24.878Z,99072.43
2019-06-20T15:02:57.795Z,99074.74
2019-06-20T15:05:24.188Z,99075.76
2019-06-20T15:07:53.857Z,99078.06
2019-06-20T15:10:23.470Z,99085.56
2019-06-20T15:12:53.724Z,99086.70
2019-06-20T15:15:22.718Z,99083.00
2019-06-20T15:17:53.600Z,99083.38
2019-06-20T15:20:22.339Z,99081.11
2019-06-20T15:22:52.586Z,99082.66
2019-06-20T15:25:21.722Z,99085.73
2019-06-20T15:27:53.169Z,99085.03
2019-06-20T15:30:20.971Z,99070.82
2019-06-20T15:33:03.986Z,99075.31
2019-06-20T15:35:20.194Z,99074.12
2019-06-20T15:37:50.228Z,99073.22
2019-06-20T15:40:19.967Z,99072.03
2019-06-20T15:42:49.608Z,99070.52
2019-06-20T15:45:19.387Z,99070.98
2019-06-20T15:47:48.112Z,99069.17
2019-06-20T15:50:17.300Z,99072.48
2019-06-20T15:52:46.053Z,99071.53
2019-06-20T15:55:17.697Z,99064.18
2019-06-20T15:57:46.588Z,99061.44
2019-06-20T16:00:16.813Z,99063.88
2019-06-20T16:02:45.559Z,99074.98
2019-06-20T16:05:14.409Z,99068.27
2019-06-20T16:07:43.160Z,99076.50
2019-06-20T16:10:13.150Z,99083.91
2019-06-20T16:12:43.957Z,99080.34
2019-06-20T16:15:14.420Z,99086.11
2019-06-20T16:17:43.153Z,99089.45
2019-06-20T16:20:12.299Z,99099.15
2019-06-20T16:22:41.027Z,99097.95
2019-06-20T16:25:10.069Z,99106.30
2019-06-20T16:27:40.629Z,99106.70
2019-06-20T16:30:10.646Z,99109.89
2019-06-20T16:32:39.372Z,99109.71
2019-06-20T16:35:09.141Z,99117.44
2019-06-20T16:37:39.500Z,99117.44
2019-06-20T16:40:09.775Z,99118.16
2019-06-20T16:42:38.625Z,99118.16
2019-06-20T16:45:08.248Z,99118.98
2019-06-20T16:47:38.415Z,99113.03
2019-06-20T16:50:08.585Z,99115.41
2019-06-20T16:52:38.455Z,99112.23
2019-06-20T16:55:07.813Z,99122.03
2019-06-20T16:57:36.692Z,99118.24
2019-06-20T17:00:10.249Z,99117.90
2019-06-20T17:02:39.267Z,99116.27
2019-06-20T17:05:08.443Z,99117.52
2019-06-20T17:07:39.473Z,99118.63
2019-06-20T17:10:09.268Z,99113.55
2019-06-20T17:12:38.060Z,99126.28
2019-06-20T17:15:07.410Z,99133.05
2019-06-20T17:17:36.112Z,99130.15
2019-06-20T17:20:10.847Z,99140.48
2019-06-20T17:22:39.764Z,99138.81
2019-06-20T17:25:14.300Z,99145.87
2019-06-20T17:27:43.582Z,99148.89
2019-06-20T17:30:13.930Z,99156.17
2019-06-20T17:32:42.759Z,99158.89
2019-06-20T17:35:12.342Z,99162.60
2019-06-20T17:37:41.056Z,99169.70
2019-06-20T17:40:11.602Z,99179.67
2019-06-20T17:42:40.358Z,99177.75
2019-06-20T17:45:09.969Z,99178.20
2019-06-20T17:47:38.710Z,99172.30
2019-06-20T17:50:12.148Z,99171.75
2019-06-20T17:52:40.973Z,99166.05
2019-06-20T17:55:12.492Z,99162.66
2019-06-20T17:57:41.664Z,99175.50
2019-06-20T18:00:15.972Z,99170.34
2019-06-20T18:02:44.691Z,99170.94
2019-06-20T18:05:14.151Z,99176.33
2019-06-20T18:07:42.873Z,99176.33
2019-06-20T18:10:11.798Z,99174.69
2019-06-20T18:12:40.759Z,99174.03
2019-06-20T18:15:11.122Z,99169.95
2019-06-20T18:17:39.846Z,99170.40
2019-06-20T18:20:09.706Z,99162.80
2019-06-20T18:22:38.532Z,99164.14
2019-06-20T18:25:08.063Z,99168.92
2019-06-20T18:27:36.987Z,99179.26
2019-06-20T18:30:09.940Z,99183.63
2019-06-20T18:32:38.665Z,99189.85
2019-06-20T18:35:08.632Z,99188.47
2019-06-20T18:37:37.370Z,99189.30
2019-06-20T18:40:08.161Z,99194.55
2019-06-20T18:42:38.339Z,99190.38
2019-06-20T18:45:08.314Z,99197.68
2019-06-20T18:47:37.141Z,99199.94
2019-06-20T18:50:07.301Z,99201.69
2019-06-20T18:52:51.183Z,99204.59
2019-06-20T18:55:08.824Z,99206.17
2019-06-20T18:57:37.620Z,99204.52
2019-06-20T19:00:08.645Z,99210.47
2019-06-20T19:02:37.401Z,99219.81
2019-06-20T19:05:07.794Z,99228.83
2019-06-20T19:07:36.856Z,99222.95
2019-06-20T19:10:08.234Z,99227.72
2019-06-20T19:12:38.128Z,99232.52
2019-06-20T19:15:08.827Z,99232.58
2019-06-20T19:17:37.552Z,99233.36
2019-06-20T19:20:08.006Z,99231.87
2019-06-20T19:22:36.730Z,99238.55
2019-06-20T19:25:07.163Z,99241.03
2019-06-20T19:27:45.789Z,99242.95
2019-06-20T19:30:10.503Z,99246.19
2019-06-20T19:32:39.379Z,99252.43
2019-06-20T19:35:10.697Z,99258.73
2019-06-20T19:37:39.502Z,99259.86
2019-06-20T19:40:09.141Z,99265.95
2019-06-20T19:42:38.116Z,99273.17
2019-06-20T19:45:11.729Z,99281.12
2019-06-20T19:47:40.943Z,99272.19
2019-06-20T19:50:11.329Z,99275.80
2019-06-20T19:52:40.465Z,99283.97
2019-06-20T19:55:10.217Z,99287.20
2019-06-20T19:57:39.083Z,99295.80
2019-06-20T20:00:08.598Z,99290.65
2019-06-20T20:02:37.424Z,99295.03
2019-06-20T20:05:18.435Z,99298.28
2019-06-20T20:07:38.557Z,99303.44
2019-06-20T20:10:08.661Z,99305.72
2019-06-20T20:12:39.027Z,99306.67
2019-06-20T20:15:08.463Z,99312.95
2019-06-20T20:17:37.192Z,99312.57
2019-06-20T20:20:08.081Z,99321.92
2019-06-20T20:22:36.799Z,99325.33
2019-06-20T20:25:07.716Z,99324.36
2019-06-20T20:27:36.875Z,99329.33
2019-06-20T20:30:10.684Z,99332.36
2019-06-20T20:32:39.411Z,99333.30
2019-06-20T20:35:08.298Z,99336.92
2019-06-20T20:37:37.015Z,99339.58
2019-06-20T20:40:10.104Z,99334.08
2019-06-20T20:42:39.092Z,99332.54
2019-06-20T20:45:08.423Z,99334.64
2019-06-20T20:47:37.144Z,99337.11
2019-06-20T20:50:08.033Z,99335.75
2019-06-20T20:52:36.864Z,99345.79
2019-06-20T20:55:10.457Z,99355.67
2019-06-20T20:57:39.439Z,99359.45
2019-06-20T21:00:16.780Z,99360.76
2019-06-20T21:02:45.781Z,99358.03
2019-06-20T21:05:14.493Z,99351.90
2019-06-20T21:07:43.626Z,99356.66
2019-06-20T21:10:13.512Z,99357.95
2019-06-20T21:12:42.280Z,99361.53
2019-06-20T21:15:11.200Z,99351.61
2019-06-20T21:17:40.155Z,99346.63
2019-06-20T21:20:10.146Z,99345.85
2019-06-20T21:22:38.884Z,99339.36
2019-06-20T21:25:08.055Z,99338.16
2019-06-20T21:27:36.776Z,99341.12
2019-06-20T21:30:08.113Z,99345.21
2019-06-20T21:32:36.916Z,99352.84
2019-06-20T21:35:08.947Z,99350.87
2019-06-20T21:37:37.776Z,99349.05
2019-06-20T21:40:10.368Z,99344.09
2019-06-20T21:42:39.097Z,99346.21
2019-06-20T21:45:09.918Z,99347.16
2019-06-20T21:47:38.726Z,99350.98
2019-06-20T21:50:09.084Z,99348.95
2019-06-20T21:52:38.301Z,99352.20
2019-06-20T21:55:07.507Z,99343.55
2019-06-20T21:57:36.229Z,99346.70
2019-06-20T22:00:21.371Z,99345.70
2019-06-20T22:02:50.381Z,99345.29
2019-06-20T22:05:19.301Z,99345.47
2019-06-20T22:07:48.170Z,99341.70
2019-06-20T22:13:13.828Z,99347.59
2019-06-20T22:15:42.544Z,99343.03
2019-06-20T22:18:11.261Z,99336.28
2019-06-20T22:20:40.054Z,99339.45
2019-06-20T22:23:08.778Z,99338.48
2019-06-20T22:25:37.516Z,99348.27
2019-06-20T22:28:06.576Z,99352.18
2019-06-20T22:30:53.161Z,99353.62
2019-06-20T22:33:22.034Z,99355.27
2019-06-20T22:35:50.738Z,99355.80
2019-06-20T22:38:19.462Z,99353.14
2019-06-20T22:40:48.724Z,99352.75
2019-06-20T22:43:18.991Z,99348.36
2019-06-20T22:45:47.735Z,99346.98
2019-06-20T22:48:16.614Z,99341.08
2019-06-20T22:50:45.474Z,99338.00
2019-06-20T22:53:14.233Z,99337.77
2019-06-20T22:55:43.007Z,99336.00
2019-06-20T22:58:11.837Z,99332.17
2019-06-20T23:00:40.956Z,99341.45
2019-06-20T23:03:09.752Z,99333.27
2019-06-20T23:05:38.472Z,99332.25
2019-06-20T23:08:07.198Z,99329.97
2019-06-20T23:10:36.071Z,99337.91
2019-06-20T23:13:04.987Z,99336.36
2019-06-20T23:15:33.772Z,99334.95
2019-06-20T23:18:02.772Z,99330.66
2019-06-20T23:20:31.509Z,99336.89
2019-06-20T23:23:00.236Z,99339.70
2019-06-20T23:25:29.116Z,99336.64
2019-06-20T23:27:57.841Z,99343.66
2019-06-20T23:30:26.769Z,99341.34
2019-06-20T23:32:55.732Z,99338.19
2019-06-20T23:35:24.456Z,99346.45
2019-06-20T23:37:53.189Z,99353.05
2019-06-20T23:40:22.263Z,99355.70
2019-06-20T23:42:50.991Z,99354.16
2019-06-20T23:45:20.014Z,99345.95
2019-06-20T23:47:48.819Z,99346.31
2019-06-20T23:50:20.674Z,99347.83
2019-06-20T23:52:51.770Z,99342.73
2019-06-20T23:55:20.631Z,99345.23
2019-06-20T23:57:49.354Z,99335.33
